High View, West Virginia
Current Conditions -  °F | °C
As of 9:55 PM on Monday 22 Dec 2014 (Local Time) from KOKV Reporting Station
Unknown Precip Unknown Precip  
Wind Chill: 34°   Ceiling: 300
Heat Index: 34°   Visibility: 2mi
Dew Point: 30°   Wind: 0mph
Humidity: 87%   Direction: NA
Pressure: 30.12"   Gusts: NA
Location:  39.21°N, 78.44°W
Report Text: KOKV 230255Z AUTO 00000KT 2SM UP OVC003 01/M01 A3012 RMK AO2
Loading
Personal Weather Stations






























Interactive Weather Map New forecast layout! Learn more

10-Day Weather Forecast

Advertisements
Track Severe Weather on mobile